Terminal Aerodrome Forecast
Issued by NWS

Home | Current Version | Previous Version | Text Only | Print | Product List | Glossary On
Versions: 1 2 3 4 5 6 7 8 9 10 11 12 13 14 15 16
000
FTUS45 KSLC 201735
TAFENV
TAF
KENV 201735Z 2018/2118 12009KT P6SM FEW100 SCT200
     FM202200 15010KT P6SM SCT100 BKN200
     FM210100 32010G15KT P6SM SCT100
     FM210500 36008KT P6SM FEW100=

USA.gov is the U.S. government's official web portal to all federal, state and local government web resources and services.